sensor_id;sensor_type;location;lat;lon;timestamp;P1;durP1;ratioP1;P2;durP2;ratioP2
36547;SDS011;22551;52.206;4.856;2023-02-13T00:04:19;36.63;;;14.82;;
36547;SDS011;22551;52.206;4.856;2023-02-13T00:09:26;36.08;;;14.45;;
36547;SDS011;22551;52.206;4.856;2023-02-13T00:14:48;35.67;;;14.90;;
36547;SDS011;22551;52.206;4.856;2023-02-13T00:21:06;35.58;;;14.02;;
36547;SDS011;22551;52.206;4.856;2023-02-13T00:26:14;38.70;;;14.75;;
36547;SDS011;22551;52.206;4.856;2023-02-13T00:31:51;39.28;;;15.38;;
36547;SDS011;22551;52.206;4.856;2023-02-13T00:42:41;39.65;;;16.23;;
36547;SDS011;22551;52.206;4.856;2023-02-13T00:59:28;34.22;;;15.50;;
36547;SDS011;22551;52.206;4.856;2023-02-13T01:04:44;40.35;;;16.00;;
36547;SDS011;22551;52.206;4.856;2023-02-13T01:09:51;34.45;;;15.07;;
36547;SDS011;22551;52.206;4.856;2023-02-13T01:15:08;37.55;;;15.55;;
36547;SDS011;22551;52.206;4.856;2023-02-13T01:20:12;38.28;;;15.07;;
36547;SDS011;22551;52.206;4.856;2023-02-13T01:25:17;37.38;;;15.02;;
36547;SDS011;22551;52.206;4.856;2023-02-13T01:35:52;36.95;;;15.85;;
36547;SDS011;22551;52.206;4.856;2023-02-13T01:46:24;40.55;;;17.15;;
36547;SDS011;22551;52.206;4.856;2023-02-13T01:51:32;43.70;;;16.48;;
36547;SDS011;22551;52.206;4.856;2023-02-13T01:56:49;43.27;;;16.40;;
36547;SDS011;22551;52.206;4.856;2023-02-13T02:02:02;35.00;;;15.88;;
36547;SDS011;22551;52.206;4.856;2023-02-13T02:07:36;43.45;;;17.63;;
36547;SDS011;22551;52.206;4.856;2023-02-13T02:12:48;40.92;;;16.65;;
36547;SDS011;22551;52.206;4.856;2023-02-13T02:17:56;45.28;;;17.65;;
36547;SDS011;22551;52.206;4.856;2023-02-13T02:23:11;40.17;;;16.88;;
36547;SDS011;22551;52.206;4.856;2023-02-13T02:34:31;42.63;;;17.45;;
36547;SDS011;22551;52.206;4.856;2023-02-13T02:44:53;46.03;;;17.27;;
36547;SDS011;22551;52.206;4.856;2023-02-13T02:50:11;47.25;;;16.67;;
36547;SDS011;22551;52.206;4.856;2023-02-13T02:55:31;42.60;;;17.05;;
36547;SDS011;22551;52.206;4.856;2023-02-13T03:00:42;37.50;;;16.13;;
36547;SDS011;22551;52.206;4.856;2023-02-13T03:06:13;35.20;;;14.75;;
36547;SDS011;22551;52.206;4.856;2023-02-13T03:11:19;39.08;;;15.70;;
36547;SDS011;22551;52.206;4.856;2023-02-13T03:16:40;46.00;;;17.13;;
36547;SDS011;22551;52.206;4.856;2023-02-13T03:22:03;35.15;;;14.77;;
36547;SDS011;22551;52.206;4.856;2023-02-13T03:27:22;40.42;;;16.00;;
36547;SDS011;22551;52.206;4.856;2023-02-13T03:32:54;39.10;;;15.07;;
36547;SDS011;22551;52.206;4.856;2023-02-13T03:38:10;42.33;;;16.33;;
36547;SDS011;22551;52.206;4.856;2023-02-13T03:43:18;38.65;;;14.57;;
36547;SDS011;22551;52.206;4.856;2023-02-13T03:48:23;45.65;;;16.55;;
36547;SDS011;22551;52.206;4.856;2023-02-13T03:53:49;38.30;;;15.60;;
36547;SDS011;22551;52.206;4.856;2023-02-13T03:58:56;41.85;;;16.52;;
36547;SDS011;22551;52.206;4.856;2023-02-13T04:04:17;35.80;;;14.75;;
36547;SDS011;22551;52.206;4.856;2023-02-13T04:09:26;35.83;;;14.82;;
36547;SDS011;22551;52.206;4.856;2023-02-13T04:14:31;35.47;;;14.27;;
36547;SDS011;22551;52.206;4.856;2023-02-13T04:19:40;41.60;;;15.48;;
36547;SDS011;22551;52.206;4.856;2023-02-13T04:24:43;38.63;;;14.88;;
36547;SDS011;22551;52.206;4.856;2023-02-13T04:29:46;34.38;;;14.40;;
36547;SDS011;22551;52.206;4.856;2023-02-13T04:34:49;38.28;;;13.38;;
36547;SDS011;22551;52.206;4.856;2023-02-13T04:39:52;35.15;;;13.95;;
36547;SDS011;22551;52.206;4.856;2023-02-13T04:44:55;31.75;;;12.75;;
36547;SDS011;22551;52.206;4.856;2023-02-13T04:49:57;37.47;;;15.00;;
36547;SDS011;22551;52.206;4.856;2023-02-13T04:55:00;34.72;;;14.05;;
36547;SDS011;22551;52.206;4.856;2023-02-13T05:00:03;34.38;;;12.85;;
36547;SDS011;22551;52.206;4.856;2023-02-13T05:05:07;35.08;;;14.27;;
36547;SDS011;22551;52.206;4.856;2023-02-13T05:10:11;31.92;;;13.63;;
36547;SDS011;22551;52.206;4.856;2023-02-13T05:15:14;32.53;;;13.00;;
36547;SDS011;22551;52.206;4.856;2023-02-13T05:20:16;38.38;;;14.13;;
36547;SDS011;22551;52.206;4.856;2023-02-13T05:41:20;32.30;;;12.40;;
36547;SDS011;22551;52.206;4.856;2023-02-13T05:46:22;31.52;;;11.48;;
36547;SDS011;22551;52.206;4.856;2023-02-13T05:51:25;32.97;;;12.02;;
36547;SDS011;22551;52.206;4.856;2023-02-13T05:56:28;30.25;;;11.70;;
36547;SDS011;22551;52.206;4.856;2023-02-13T06:54:09;33.97;;;12.35;;
36547;SDS011;22551;52.206;4.856;2023-02-13T06:59:11;31.25;;;12.13;;
36547;SDS011;22551;52.206;4.856;2023-02-13T07:04:14;31.67;;;12.18;;
36547;SDS011;22551;52.206;4.856;2023-02-13T07:09:17;29.45;;;12.27;;
36547;SDS011;22551;52.206;4.856;2023-02-13T07:14:19;28.50;;;11.73;;
36547;SDS011;22551;52.206;4.856;2023-02-13T07:19:22;27.33;;;11.70;;
36547;SDS011;22551;52.206;4.856;2023-02-13T07:24:25;32.05;;;12.07;;
36547;SDS011;22551;52.206;4.856;2023-02-13T07:29:27;30.63;;;12.05;;
36547;SDS011;22551;52.206;4.856;2023-02-13T07:34:29;35.53;;;12.40;;
36547;SDS011;22551;52.206;4.856;2023-02-13T07:39:33;37.05;;;13.90;;
36547;SDS011;22551;52.206;4.856;2023-02-13T07:44:37;33.28;;;13.45;;
36547;SDS011;22551;52.206;4.856;2023-02-13T07:49:40;39.60;;;13.20;;
36547;SDS011;22551;52.206;4.856;2023-02-13T07:54:44;33.17;;;12.38;;
36547;SDS011;22551;52.206;4.856;2023-02-13T07:59:48;36.60;;;12.00;;
36547;SDS011;22551;52.206;4.856;2023-02-13T08:04:50;32.33;;;12.38;;
36547;SDS011;22551;52.206;4.856;2023-02-13T08:09:54;38.55;;;14.23;;
36547;SDS011;22551;52.206;4.856;2023-02-13T08:15:14;35.58;;;13.18;;
36547;SDS011;22551;52.206;4.856;2023-02-13T08:20:16;33.42;;;13.57;;
36547;SDS011;22551;52.206;4.856;2023-02-13T08:25:20;31.25;;;12.70;;
36547;SDS011;22551;52.206;4.856;2023-02-13T08:30:22;26.92;;;12.38;;
36547;SDS011;22551;52.206;4.856;2023-02-13T08:35:25;32.25;;;13.80;;
36547;SDS011;22551;52.206;4.856;2023-02-13T08:40:30;35.08;;;13.80;;
36547;SDS011;22551;52.206;4.856;2023-02-13T08:45:32;33.88;;;12.50;;
36547;SDS011;22551;52.206;4.856;2023-02-13T09:12:39;38.38;;;13.32;;
36547;SDS011;22551;52.206;4.856;2023-02-13T09:17:42;31.23;;;13.15;;
36547;SDS011;22551;52.206;4.856;2023-02-13T09:22:44;31.67;;;13.23;;
36547;SDS011;22551;52.206;4.856;2023-02-13T09:27:47;32.22;;;13.50;;
36547;SDS011;22551;52.206;4.856;2023-02-13T09:32:50;33.08;;;13.68;;
36547;SDS011;22551;52.206;4.856;2023-02-13T09:37:53;31.50;;;13.45;;
36547;SDS011;22551;52.206;4.856;2023-02-13T10:11:07;26.23;;;11.90;;
36547;SDS011;22551;52.206;4.856;2023-02-13T10:16:26;26.90;;;12.60;;
36547;SDS011;22551;52.206;4.856;2023-02-13T10:21:35;26.17;;;12.00;;
36547;SDS011;22551;52.206;4.856;2023-02-13T10:26:44;27.27;;;12.13;;
36547;SDS011;22551;52.206;4.856;2023-02-13T10:31:48;29.42;;;12.48;;
36547;SDS011;22551;52.206;4.856;2023-02-13T10:37:01;24.38;;;12.27;;
36547;SDS011;22551;52.206;4.856;2023-02-13T10:42:06;26.38;;;12.65;;
36547;SDS011;22551;52.206;4.856;2023-02-13T10:47:26;30.67;;;13.00;;
36547;SDS011;22551;52.206;4.856;2023-02-13T10:52:46;27.02;;;12.35;;
36547;SDS011;22551;52.206;4.856;2023-02-13T10:58:03;30.80;;;12.88;;
36547;SDS011;22551;52.206;4.856;2023-02-13T11:03:19;27.77;;;12.15;;
36547;SDS011;22551;52.206;4.856;2023-02-13T11:08:24;31.08;;;12.55;;
36547;SDS011;22551;52.206;4.856;2023-02-13T11:13:32;26.30;;;12.40;;
36547;SDS011;22551;52.206;4.856;2023-02-13T11:18:35;23.85;;;10.90;;
36547;SDS011;22551;52.206;4.856;2023-02-13T11:23:41;27.83;;;12.23;;
36547;SDS011;22551;52.206;4.856;2023-02-13T11:28:49;21.35;;;10.70;;
36547;SDS011;22551;52.206;4.856;2023-02-13T11:33:55;25.23;;;11.00;;
36547;SDS011;22551;52.206;4.856;2023-02-13T11:39:00;22.10;;;9.65;;
36547;SDS011;22551;52.206;4.856;2023-02-13T11:44:16;22.98;;;11.65;;
36547;SDS011;22551;52.206;4.856;2023-02-13T11:49:23;24.20;;;11.05;;
36547;SDS011;22551;52.206;4.856;2023-02-13T11:54:30;25.83;;;11.02;;
36547;SDS011;22551;52.206;4.856;2023-02-13T11:59:39;22.67;;;10.93;;
36547;SDS011;22551;52.206;4.856;2023-02-13T12:04:46;21.73;;;10.55;;
36547;SDS011;22551;52.206;4.856;2023-02-13T12:09:52;19.35;;;9.20;;
36547;SDS011;22551;52.206;4.856;2023-02-13T12:15:04;24.17;;;10.13;;
36547;SDS011;22551;52.206;4.856;2023-02-13T12:20:18;21.23;;;9.63;;
36547;SDS011;22551;52.206;4.856;2023-02-13T12:36:31;20.83;;;11.07;;
36547;SDS011;22551;52.206;4.856;2023-02-13T12:41:43;18.83;;;9.88;;
36547;SDS011;22551;52.206;4.856;2023-02-13T12:46:58;21.92;;;11.18;;
36547;SDS011;22551;52.206;4.856;2023-02-13T12:52:15;21.05;;;9.98;;
36547;SDS011;22551;52.206;4.856;2023-02-13T13:02:52;19.35;;;9.93;;
36547;SDS011;22551;52.206;4.856;2023-02-13T13:08:30;20.63;;;10.18;;
36547;SDS011;22551;52.206;4.856;2023-02-13T13:13:51;22.88;;;10.45;;
36547;SDS011;22551;52.206;4.856;2023-02-13T13:19:06;22.95;;;9.57;;
36547;SDS011;22551;52.206;4.856;2023-02-13T13:24:24;18.52;;;9.15;;
36547;SDS011;22551;52.206;4.856;2023-02-13T13:29:40;20.80;;;9.90;;
36547;SDS011;22551;52.206;4.856;2023-02-13T13:34:48;20.75;;;9.80;;
36547;SDS011;22551;52.206;4.856;2023-02-13T13:39:52;24.08;;;10.73;;
36547;SDS011;22551;52.206;4.856;2023-02-13T13:50:39;20.95;;;9.45;;
36547;SDS011;22551;52.206;4.856;2023-02-13T13:55:59;23.58;;;10.43;;
36547;SDS011;22551;52.206;4.856;2023-02-13T14:01:18;16.58;;;9.05;;
36547;SDS011;22551;52.206;4.856;2023-02-13T14:07:12;17.55;;;8.82;;
36547;SDS011;22551;52.206;4.856;2023-02-13T14:17:51;20.17;;;9.82;;
36547;SDS011;22551;52.206;4.856;2023-02-13T14:22:58;19.85;;;9.25;;
36547;SDS011;22551;52.206;4.856;2023-02-13T14:28:38;20.23;;;10.13;;
36547;SDS011;22551;52.206;4.856;2023-02-13T14:33:42;18.58;;;10.13;;
36547;SDS011;22551;52.206;4.856;2023-02-13T14:38:46;25.92;;;12.85;;
36547;SDS011;22551;52.206;4.856;2023-02-13T14:43:56;20.60;;;9.77;;
36547;SDS011;22551;52.206;4.856;2023-02-13T14:48:59;20.63;;;9.35;;
36547;SDS011;22551;52.206;4.856;2023-02-13T14:54:12;21.73;;;9.70;;
36547;SDS011;22551;52.206;4.856;2023-02-13T14:59:23;19.05;;;9.25;;
36547;SDS011;22551;52.206;4.856;2023-02-13T15:04:33;18.08;;;9.02;;
36547;SDS011;22551;52.206;4.856;2023-02-13T15:09:46;18.35;;;9.32;;
36547;SDS011;22551;52.206;4.856;2023-02-13T15:14:52;20.40;;;9.48;;
36547;SDS011;22551;52.206;4.856;2023-02-13T15:19:54;22.25;;;9.85;;
36547;SDS011;22551;52.206;4.856;2023-02-13T15:25:07;16.65;;;9.00;;
36547;SDS011;22551;52.206;4.856;2023-02-13T15:30:17;20.85;;;9.45;;
36547;SDS011;22551;52.206;4.856;2023-02-13T15:35:23;21.58;;;10.32;;
36547;SDS011;22551;52.206;4.856;2023-02-13T15:40:29;18.15;;;8.75;;
36547;SDS011;22551;52.206;4.856;2023-02-13T15:45:36;20.85;;;9.75;;
36547;SDS011;22551;52.206;4.856;2023-02-13T15:50:44;18.67;;;10.32;;
36547;SDS011;22551;52.206;4.856;2023-02-13T15:55:55;20.20;;;10.30;;
36547;SDS011;22551;52.206;4.856;2023-02-13T16:01:02;19.23;;;9.65;;
36547;SDS011;22551;52.206;4.856;2023-02-13T16:06:08;22.10;;;9.93;;
36547;SDS011;22551;52.206;4.856;2023-02-13T16:11:23;19.27;;;8.70;;
36547;SDS011;22551;52.206;4.856;2023-02-13T16:16:34;17.70;;;8.55;;
36547;SDS011;22551;52.206;4.856;2023-02-13T16:21:44;21.25;;;9.55;;
36547;SDS011;22551;52.206;4.856;2023-02-13T16:26:50;30.02;;;12.82;;
36547;SDS011;22551;52.206;4.856;2023-02-13T16:31:52;26.17;;;11.13;;
36547;SDS011;22551;52.206;4.856;2023-02-13T16:42:29;23.15;;;11.25;;
36547;SDS011;22551;52.206;4.856;2023-02-13T16:47:31;20.17;;;10.18;;
36547;SDS011;22551;52.206;4.856;2023-02-13T16:52:33;20.45;;;8.82;;
36547;SDS011;22551;52.206;4.856;2023-02-13T16:57:39;22.77;;;10.70;;
36547;SDS011;22551;52.206;4.856;2023-02-13T17:02:44;23.75;;;10.35;;
36547;SDS011;22551;52.206;4.856;2023-02-13T17:07:48;23.00;;;10.88;;
36547;SDS011;22551;52.206;4.856;2023-02-13T17:17:58;28.50;;;12.50;;
36547;SDS011;22551;52.206;4.856;2023-02-13T17:23:01;30.27;;;13.55;;
36547;SDS011;22551;52.206;4.856;2023-02-13T17:28:09;31.57;;;13.23;;
36547;SDS011;22551;52.206;4.856;2023-02-13T17:33:15;21.77;;;11.57;;
36547;SDS011;22551;52.206;4.856;2023-02-13T17:38:21;26.98;;;12.25;;
36547;SDS011;22551;52.206;4.856;2023-02-13T17:43:25;28.27;;;12.32;;
36547;SDS011;22551;52.206;4.856;2023-02-13T17:48:29;29.00;;;11.23;;
36547;SDS011;22551;52.206;4.856;2023-02-13T17:53:31;33.40;;;13.38;;
36547;SDS011;22551;52.206;4.856;2023-02-13T17:58:34;27.27;;;11.85;;
36547;SDS011;22551;52.206;4.856;2023-02-13T18:03:37;28.15;;;13.38;;
36547;SDS011;22551;52.206;4.856;2023-02-13T18:08:39;29.02;;;12.93;;
36547;SDS011;22551;52.206;4.856;2023-02-13T18:13:43;27.13;;;13.70;;
36547;SDS011;22551;52.206;4.856;2023-02-13T18:18:47;27.13;;;12.75;;
36547;SDS011;22551;52.206;4.856;2023-02-13T18:23:50;29.15;;;12.68;;
36547;SDS011;22551;52.206;4.856;2023-02-13T18:28:54;33.83;;;14.38;;
36547;SDS011;22551;52.206;4.856;2023-02-13T18:33:57;30.08;;;14.23;;
36547;SDS011;22551;52.206;4.856;2023-02-13T18:38:59;32.90;;;15.18;;
36547;SDS011;22551;52.206;4.856;2023-02-13T18:44:02;31.10;;;14.05;;
36547;SDS011;22551;52.206;4.856;2023-02-13T18:49:05;27.20;;;12.38;;
36547;SDS011;22551;52.206;4.856;2023-02-13T18:54:07;28.58;;;12.77;;
36547;SDS011;22551;52.206;4.856;2023-02-13T18:59:11;33.45;;;13.63;;
36547;SDS011;22551;52.206;4.856;2023-02-13T19:04:14;29.05;;;13.55;;
36547;SDS011;22551;52.206;4.856;2023-02-13T19:09:17;27.92;;;13.43;;
36547;SDS011;22551;52.206;4.856;2023-02-13T19:14:20;27.77;;;12.38;;
36547;SDS011;22551;52.206;4.856;2023-02-13T19:19:22;29.08;;;12.20;;
36547;SDS011;22551;52.206;4.856;2023-02-13T19:24:25;25.23;;;12.07;;
36547;SDS011;22551;52.206;4.856;2023-02-13T19:29:29;29.67;;;12.80;;
36547;SDS011;22551;52.206;4.856;2023-02-13T19:34:31;27.75;;;12.55;;
36547;SDS011;22551;52.206;4.856;2023-02-13T19:39:33;31.10;;;13.43;;
36547;SDS011;22551;52.206;4.856;2023-02-13T19:44:37;27.40;;;12.05;;
36547;SDS011;22551;52.206;4.856;2023-02-13T19:49:39;27.27;;;11.82;;
36547;SDS011;22551;52.206;4.856;2023-02-13T19:54:41;26.88;;;11.70;;
36547;SDS011;22551;52.206;4.856;2023-02-13T19:59:45;30.02;;;13.00;;
36547;SDS011;22551;52.206;4.856;2023-02-13T20:04:47;27.00;;;11.93;;
36547;SDS011;22551;52.206;4.856;2023-02-13T20:09:49;26.27;;;12.60;;
36547;SDS011;22551;52.206;4.856;2023-02-13T20:14:54;29.83;;;13.15;;
36547;SDS011;22551;52.206;4.856;2023-02-13T20:19:56;29.52;;;12.88;;
36547;SDS011;22551;52.206;4.856;2023-02-13T20:24:58;29.20;;;14.18;;
36547;SDS011;22551;52.206;4.856;2023-02-13T20:30:02;29.65;;;13.40;;
36547;SDS011;22551;52.206;4.856;2023-02-13T20:35:06;31.00;;;13.38;;
36547;SDS011;22551;52.206;4.856;2023-02-13T20:40:09;37.25;;;13.88;;
36547;SDS011;22551;52.206;4.856;2023-02-13T20:45:13;37.17;;;15.05;;
36547;SDS011;22551;52.206;4.856;2023-02-13T20:50:17;26.15;;;9.70;;
36547;SDS011;22551;52.206;4.856;2023-02-13T20:55:19;30.42;;;13.50;;
36547;SDS011;22551;52.206;4.856;2023-02-13T21:00:23;31.02;;;14.40;;
36547;SDS011;22551;52.206;4.856;2023-02-13T21:05:25;28.95;;;13.13;;
36547;SDS011;22551;52.206;4.856;2023-02-13T21:10:27;35.17;;;14.85;;
36547;SDS011;22551;52.206;4.856;2023-02-13T21:15:31;30.17;;;13.70;;
36547;SDS011;22551;52.206;4.856;2023-02-13T21:20:33;34.55;;;14.70;;
36547;SDS011;22551;52.206;4.856;2023-02-13T21:25:37;32.38;;;14.27;;
36547;SDS011;22551;52.206;4.856;2023-02-13T21:30:40;33.50;;;13.07;;
36547;SDS011;22551;52.206;4.856;2023-02-13T21:35:43;28.30;;;13.85;;
36547;SDS011;22551;52.206;4.856;2023-02-13T21:40:45;31.17;;;13.65;;
36547;SDS011;22551;52.206;4.856;2023-02-13T21:45:48;29.55;;;13.13;;
36547;SDS011;22551;52.206;4.856;2023-02-13T21:50:51;28.33;;;13.00;;
36547;SDS011;22551;52.206;4.856;2023-02-13T21:55:59;27.67;;;12.80;;
36547;SDS011;22551;52.206;4.856;2023-02-13T22:01:09;28.05;;;12.25;;
36547;SDS011;22551;52.206;4.856;2023-02-13T22:06:13;29.85;;;13.00;;
36547;SDS011;22551;52.206;4.856;2023-02-13T22:11:18;31.80;;;13.93;;
36547;SDS011;22551;52.206;4.856;2023-02-13T22:16:22;28.60;;;13.68;;
36547;SDS011;22551;52.206;4.856;2023-02-13T22:21:24;32.40;;;14.25;;
36547;SDS011;22551;52.206;4.856;2023-02-13T22:26:30;28.92;;;13.15;;
36547;SDS011;22551;52.206;4.856;2023-02-13T22:31:36;26.38;;;14.23;;
36547;SDS011;22551;52.206;4.856;2023-02-13T22:36:38;32.05;;;13.63;;
36547;SDS011;22551;52.206;4.856;2023-02-13T22:41:41;32.28;;;14.23;;
36547;SDS011;22551;52.206;4.856;2023-02-13T22:46:46;29.38;;;12.85;;
36547;SDS011;22551;52.206;4.856;2023-02-13T22:51:48;34.33;;;14.57;;
36547;SDS011;22551;52.206;4.856;2023-02-13T22:56:50;26.77;;;13.35;;
36547;SDS011;22551;52.206;4.856;2023-02-13T23:01:53;35.00;;;15.10;;
36547;SDS011;22551;52.206;4.856;2023-02-13T23:06:56;29.42;;;14.30;;
36547;SDS011;22551;52.206;4.856;2023-02-13T23:11:58;29.13;;;14.38;;
36547;SDS011;22551;52.206;4.856;2023-02-13T23:17:19;30.95;;;13.57;;
36547;SDS011;22551;52.206;4.856;2023-02-13T23:22:38;30.95;;;14.30;;
36547;SDS011;22551;52.206;4.856;2023-02-13T23:27:41;42.33;;;15.32;;
36547;SDS011;22551;52.206;4.856;2023-02-13T23:32:45;30.67;;;13.85;;
36547;SDS011;22551;52.206;4.856;2023-02-13T23:37:48;31.17;;;14.27;;
36547;SDS011;22551;52.206;4.856;2023-02-13T23:42:50;34.00;;;14.73;;
36547;SDS011;22551;52.206;4.856;2023-02-13T23:47:53;27.20;;;13.73;;
36547;SDS011;22551;52.206;4.856;2023-02-13T23:52:56;31.55;;;14.38;;
36547;SDS011;22551;52.206;4.856;2023-02-13T23:57:59;39.95;;;15.30;;
